sensor_id;sensor_type;location;lat;lon;timestamp;P1;durP1;ratioP1;P2;durP2;ratioP2
75419;SDS011;63998;52.488;13.428;2023-04-07T00:01:55;16.88;;;9.88;;
75419;SDS011;63998;52.488;13.428;2023-04-07T00:04:21;11.87;;;8.30;;
75419;SDS011;63998;52.488;13.428;2023-04-07T00:06:46;14.70;;;8.70;;
75419;SDS011;63998;52.488;13.428;2023-04-07T00:14:22;12.25;;;8.20;;
75419;SDS011;63998;52.488;13.428;2023-04-07T00:16:47;10.97;;;8.53;;
75419;SDS011;63998;52.488;13.428;2023-04-07T00:19:12;12.43;;;8.17;;
75419;SDS011;63998;52.488;13.428;2023-04-07T00:21:37;14.23;;;8.63;;
75419;SDS011;63998;52.488;13.428;2023-04-07T00:24:08;15.25;;;10.20;;
75419;SDS011;63998;52.488;13.428;2023-04-07T00:26:33;17.60;;;11.30;;
75419;SDS011;63998;52.488;13.428;2023-04-07T00:28:58;20.83;;;12.48;;
75419;SDS011;63998;52.488;13.428;2023-04-07T00:31:26;31.17;;;16.80;;
75419;SDS011;63998;52.488;13.428;2023-04-07T00:33:51;17.33;;;10.50;;
75419;SDS011;63998;52.488;13.428;2023-04-07T00:36:16;10.87;;;8.00;;
75419;SDS011;63998;52.488;13.428;2023-04-07T00:38:42;12.27;;;7.53;;
75419;SDS011;63998;52.488;13.428;2023-04-07T00:41:07;18.47;;;9.73;;
75419;SDS011;63998;52.488;13.428;2023-04-07T00:43:35;17.98;;;9.48;;
75419;SDS011;63998;52.488;13.428;2023-04-07T00:46:03;13.45;;;7.75;;
75419;SDS011;63998;52.488;13.428;2023-04-07T00:48:29;11.32;;;7.38;;
75419;SDS011;63998;52.488;13.428;2023-04-07T00:50:55;11.20;;;6.63;;
75419;SDS011;63998;52.488;13.428;2023-04-07T00:53:20;15.75;;;6.60;;
75419;SDS011;63998;52.488;13.428;2023-04-07T00:55:48;11.75;;;7.03;;
75419;SDS011;63998;52.488;13.428;2023-04-07T00:58:13;14.27;;;6.43;;
75419;SDS011;63998;52.488;13.428;2023-04-07T01:00:43;11.07;;;6.32;;
75419;SDS011;63998;52.488;13.428;2023-04-07T01:03:24;10.57;;;6.40;;
75419;SDS011;63998;52.488;13.428;2023-04-07T01:06:00;9.63;;;5.80;;
75419;SDS011;63998;52.488;13.428;2023-04-07T01:08:29;10.77;;;6.05;;
75419;SDS011;63998;52.488;13.428;2023-04-07T01:11:07;13.60;;;5.53;;
75419;SDS011;63998;52.488;13.428;2023-04-07T01:13:37;9.75;;;6.18;;
75419;SDS011;63998;52.488;13.428;2023-04-07T01:16:10;12.55;;;7.15;;
75419;SDS011;63998;52.488;13.428;2023-04-07T01:18:41;12.35;;;6.20;;
75419;SDS011;63998;52.488;13.428;2023-04-07T01:21:14;8.50;;;5.85;;
75419;SDS011;63998;52.488;13.428;2023-04-07T01:28:53;7.60;;;5.60;;
75419;SDS011;63998;52.488;13.428;2023-04-07T01:31:20;10.18;;;6.30;;
75419;SDS011;63998;52.488;13.428;2023-04-07T01:33:50;11.20;;;6.50;;
75419;SDS011;63998;52.488;13.428;2023-04-07T01:36:17;11.15;;;6.90;;
75419;SDS011;63998;52.488;13.428;2023-04-07T01:38:44;11.82;;;7.07;;
75419;SDS011;63998;52.488;13.428;2023-04-07T01:41:10;10.98;;;6.57;;
75419;SDS011;63998;52.488;13.428;2023-04-07T01:43:38;10.30;;;6.28;;
75419;SDS011;63998;52.488;13.428;2023-04-07T01:46:05;11.88;;;6.38;;
75419;SDS011;63998;52.488;13.428;2023-04-07T01:48:31;11.93;;;6.97;;
75419;SDS011;63998;52.488;13.428;2023-04-07T01:50:58;11.32;;;6.53;;
75419;SDS011;63998;52.488;13.428;2023-04-07T01:53:24;12.45;;;6.15;;
75419;SDS011;63998;52.488;13.428;2023-04-07T01:55:52;10.18;;;6.32;;
75419;SDS011;63998;52.488;13.428;2023-04-07T01:58:18;9.25;;;5.95;;
75419;SDS011;63998;52.488;13.428;2023-04-07T02:00:44;10.13;;;5.97;;
75419;SDS011;63998;52.488;13.428;2023-04-07T02:03:12;11.73;;;6.60;;
75419;SDS011;63998;52.488;13.428;2023-04-07T02:05:44;9.52;;;6.45;;
75419;SDS011;63998;52.488;13.428;2023-04-07T02:08:14;9.30;;;5.85;;
75419;SDS011;63998;52.488;13.428;2023-04-07T02:10:41;10.32;;;6.20;;
75419;SDS011;63998;52.488;13.428;2023-04-07T02:13:12;9.48;;;6.32;;
75419;SDS011;63998;52.488;13.428;2023-04-07T02:15:39;9.90;;;6.20;;
75419;SDS011;63998;52.488;13.428;2023-04-07T02:18:08;10.02;;;5.53;;
75419;SDS011;63998;52.488;13.428;2023-04-07T02:20:34;8.43;;;5.75;;
75419;SDS011;63998;52.488;13.428;2023-04-07T02:23:02;9.75;;;5.97;;
75419;SDS011;63998;52.488;13.428;2023-04-07T02:25:28;9.10;;;5.95;;
75419;SDS011;63998;52.488;13.428;2023-04-07T02:27:56;8.50;;;5.50;;
75419;SDS011;63998;52.488;13.428;2023-04-07T02:30:23;9.95;;;5.35;;
75419;SDS011;63998;52.488;13.428;2023-04-07T02:32:49;10.50;;;6.43;;
75419;SDS011;63998;52.488;13.428;2023-04-07T02:35:17;11.93;;;6.65;;
75419;SDS011;63998;52.488;13.428;2023-04-07T02:37:43;8.73;;;5.88;;
75419;SDS011;63998;52.488;13.428;2023-04-07T02:40:11;10.27;;;5.57;;
75419;SDS011;63998;52.488;13.428;2023-04-07T02:42:42;11.00;;;6.03;;
75419;SDS011;63998;52.488;13.428;2023-04-07T02:45:08;9.80;;;5.43;;
75419;SDS011;63998;52.488;13.428;2023-04-07T02:47:35;10.32;;;5.68;;
75419;SDS011;63998;52.488;13.428;2023-04-07T02:50:03;8.45;;;5.97;;
75419;SDS011;63998;52.488;13.428;2023-04-07T02:52:28;8.90;;;5.18;;
75419;SDS011;63998;52.488;13.428;2023-04-07T02:54:54;8.38;;;4.75;;
75419;SDS011;63998;52.488;13.428;2023-04-07T02:57:19;11.33;;;5.93;;
75419;SDS011;63998;52.488;13.428;2023-04-07T02:59:47;10.68;;;6.53;;
75419;SDS011;63998;52.488;13.428;2023-04-07T03:02:12;9.52;;;5.72;;
75419;SDS011;63998;52.488;13.428;2023-04-07T03:04:37;10.50;;;5.72;;
75419;SDS011;63998;52.488;13.428;2023-04-07T03:07:06;9.40;;;5.82;;
75419;SDS011;63998;52.488;13.428;2023-04-07T03:09:33;8.80;;;5.25;;
75419;SDS011;63998;52.488;13.428;2023-04-07T03:11:59;10.73;;;6.38;;
75419;SDS011;63998;52.488;13.428;2023-04-07T03:14:25;10.80;;;5.78;;
75419;SDS011;63998;52.488;13.428;2023-04-07T03:16:51;8.35;;;5.00;;
75419;SDS011;63998;52.488;13.428;2023-04-07T03:19:16;11.33;;;5.40;;
75419;SDS011;63998;52.488;13.428;2023-04-07T03:21:41;10.17;;;6.30;;
75419;SDS011;63998;52.488;13.428;2023-04-07T03:24:07;8.23;;;5.63;;
75419;SDS011;63998;52.488;13.428;2023-04-07T03:26:32;9.05;;;5.40;;
75419;SDS011;63998;52.488;13.428;2023-04-07T03:29:00;7.55;;;5.25;;
75419;SDS011;63998;52.488;13.428;2023-04-07T03:31:28;9.15;;;5.68;;
75419;SDS011;63998;52.488;13.428;2023-04-07T03:33:54;8.88;;;5.53;;
75419;SDS011;63998;52.488;13.428;2023-04-07T03:36:19;9.65;;;5.93;;
75419;SDS011;63998;52.488;13.428;2023-04-07T03:38:47;9.13;;;4.85;;
75419;SDS011;63998;52.488;13.428;2023-04-07T03:41:13;9.35;;;6.00;;
75419;SDS011;63998;52.488;13.428;2023-04-07T03:43:38;10.03;;;5.20;;
75419;SDS011;63998;52.488;13.428;2023-04-07T03:46:03;9.47;;;5.50;;
75419;SDS011;63998;52.488;13.428;2023-04-07T03:48:33;9.45;;;5.68;;
75419;SDS011;63998;52.488;13.428;2023-04-07T03:50:59;9.10;;;5.53;;
75419;SDS011;63998;52.488;13.428;2023-04-07T03:53:25;7.72;;;5.00;;
75419;SDS011;63998;52.488;13.428;2023-04-07T03:55:51;7.88;;;5.25;;
75419;SDS011;63998;52.488;13.428;2023-04-07T03:58:16;11.32;;;5.53;;
75419;SDS011;63998;52.488;13.428;2023-04-07T04:00:42;8.85;;;5.93;;
75419;SDS011;63998;52.488;13.428;2023-04-07T04:03:07;9.57;;;5.83;;
75419;SDS011;63998;52.488;13.428;2023-04-07T04:05:32;9.57;;;5.50;;
75419;SDS011;63998;52.488;13.428;2023-04-07T04:07:58;9.50;;;5.57;;
75419;SDS011;63998;52.488;13.428;2023-04-07T04:10:25;8.07;;;5.45;;
75419;SDS011;63998;52.488;13.428;2023-04-07T04:12:53;8.88;;;5.78;;
75419;SDS011;63998;52.488;13.428;2023-04-07T04:15:19;9.30;;;5.93;;
75419;SDS011;63998;52.488;13.428;2023-04-07T04:17:44;8.73;;;6.20;;
75419;SDS011;63998;52.488;13.428;2023-04-07T04:20:12;9.32;;;6.07;;
75419;SDS011;63998;52.488;13.428;2023-04-07T04:22:40;14.65;;;5.93;;
75419;SDS011;63998;52.488;13.428;2023-04-07T04:25:05;8.90;;;5.82;;
75419;SDS011;63998;52.488;13.428;2023-04-07T04:27:31;9.40;;;6.32;;
75419;SDS011;63998;52.488;13.428;2023-04-07T04:29:58;9.75;;;6.03;;
75419;SDS011;63998;52.488;13.428;2023-04-07T04:32:24;11.50;;;5.87;;
75419;SDS011;63998;52.488;13.428;2023-04-07T04:34:49;10.13;;;5.90;;
75419;SDS011;63998;52.488;13.428;2023-04-07T04:37:16;10.57;;;5.80;;
75419;SDS011;63998;52.488;13.428;2023-04-07T04:39:44;9.75;;;6.07;;
75419;SDS011;63998;52.488;13.428;2023-04-07T04:42:12;9.77;;;6.03;;
75419;SDS011;63998;52.488;13.428;2023-04-07T04:44:38;9.27;;;5.88;;
75419;SDS011;63998;52.488;13.428;2023-04-07T04:47:05;9.75;;;5.80;;
75419;SDS011;63998;52.488;13.428;2023-04-07T04:49:31;10.87;;;6.30;;
75419;SDS011;63998;52.488;13.428;2023-04-07T04:51:58;7.63;;;5.70;;
75419;SDS011;63998;52.488;13.428;2023-04-07T04:54:23;10.18;;;5.82;;
75419;SDS011;63998;52.488;13.428;2023-04-07T04:56:51;10.35;;;6.22;;
75419;SDS011;63998;52.488;13.428;2023-04-07T04:59:16;11.93;;;6.40;;
75419;SDS011;63998;52.488;13.428;2023-04-07T05:01:42;8.97;;;5.67;;
75419;SDS011;63998;52.488;13.428;2023-04-07T05:04:07;8.67;;;6.23;;
75419;SDS011;63998;52.488;13.428;2023-04-07T05:06:35;9.68;;;6.05;;
75419;SDS011;63998;52.488;13.428;2023-04-07T05:09:00;8.43;;;5.57;;
75419;SDS011;63998;52.488;13.428;2023-04-07T05:11:28;9.27;;;6.57;;
75419;SDS011;63998;52.488;13.428;2023-04-07T05:13:56;9.85;;;5.80;;
75419;SDS011;63998;52.488;13.428;2023-04-07T05:16:21;10.30;;;5.57;;
75419;SDS011;63998;52.488;13.428;2023-04-07T05:18:46;7.53;;;5.60;;
75419;SDS011;63998;52.488;13.428;2023-04-07T05:21:12;9.00;;;5.27;;
75419;SDS011;63998;52.488;13.428;2023-04-07T05:23:37;8.90;;;6.03;;
75419;SDS011;63998;52.488;13.428;2023-04-07T05:26:05;9.38;;;6.00;;
75419;SDS011;63998;52.488;13.428;2023-04-07T05:28:30;9.53;;;5.73;;
75419;SDS011;63998;52.488;13.428;2023-04-07T05:30:55;11.60;;;6.47;;
75419;SDS011;63998;52.488;13.428;2023-04-07T05:33:23;8.80;;;6.40;;
75419;SDS011;63998;52.488;13.428;2023-04-07T05:35:48;11.23;;;6.53;;
75419;SDS011;63998;52.488;13.428;2023-04-07T05:38:14;9.15;;;6.03;;
75419;SDS011;63998;52.488;13.428;2023-04-07T05:40:41;11.90;;;6.10;;
75419;SDS011;63998;52.488;13.428;2023-04-07T05:43:10;9.40;;;6.45;;
75419;SDS011;63998;52.488;13.428;2023-04-07T05:45:35;9.70;;;5.53;;
75419;SDS011;63998;52.488;13.428;2023-04-07T05:48:01;8.83;;;6.33;;
75419;SDS011;63998;52.488;13.428;2023-04-07T05:50:26;9.60;;;6.20;;
75419;SDS011;63998;52.488;13.428;2023-04-07T05:52:51;10.53;;;6.30;;
75419;SDS011;63998;52.488;13.428;2023-04-07T05:55:19;10.90;;;6.72;;
75419;SDS011;63998;52.488;13.428;2023-04-07T05:57:44;12.30;;;6.70;;
75419;SDS011;63998;52.488;13.428;2023-04-07T06:00:10;12.65;;;8.07;;
75419;SDS011;63998;52.488;13.428;2023-04-07T06:02:35;10.75;;;7.00;;
75419;SDS011;63998;52.488;13.428;2023-04-07T06:05:04;14.82;;;10.82;;
75419;SDS011;63998;52.488;13.428;2023-04-07T06:07:29;12.85;;;8.90;;
75419;SDS011;63998;52.488;13.428;2023-04-07T06:09:59;17.33;;;9.48;;
75419;SDS011;63998;52.488;13.428;2023-04-07T06:12:25;16.85;;;10.65;;
75419;SDS011;63998;52.488;13.428;2023-04-07T06:14:51;17.83;;;10.47;;
75419;SDS011;63998;52.488;13.428;2023-04-07T06:17:18;16.08;;;10.02;;
75419;SDS011;63998;52.488;13.428;2023-04-07T06:19:43;16.33;;;10.18;;
75419;SDS011;63998;52.488;13.428;2023-04-07T06:22:09;14.85;;;8.40;;
75419;SDS011;63998;52.488;13.428;2023-04-07T06:24:39;17.20;;;10.52;;
75419;SDS011;63998;52.488;13.428;2023-04-07T06:27:04;27.33;;;13.60;;
75419;SDS011;63998;52.488;13.428;2023-04-07T06:29:31;18.83;;;11.35;;
75419;SDS011;63998;52.488;13.428;2023-04-07T06:32:00;13.68;;;9.05;;
75419;SDS011;63998;52.488;13.428;2023-04-07T06:34:26;19.70;;;10.13;;
75419;SDS011;63998;52.488;13.428;2023-04-07T06:36:51;25.90;;;13.48;;
75419;SDS011;63998;52.488;13.428;2023-04-07T06:39:20;15.90;;;8.57;;
75419;SDS011;63998;52.488;13.428;2023-04-07T06:41:49;19.45;;;10.73;;
75419;SDS011;63998;52.488;13.428;2023-04-07T06:44:14;21.85;;;10.48;;
75419;SDS011;63998;52.488;13.428;2023-04-07T06:46:40;19.60;;;10.63;;
75419;SDS011;63998;52.488;13.428;2023-04-07T06:49:06;13.88;;;8.40;;
75419;SDS011;63998;52.488;13.428;2023-04-07T06:51:31;16.43;;;8.63;;
75419;SDS011;63998;52.488;13.428;2023-04-07T06:54:01;12.43;;;7.38;;
75419;SDS011;63998;52.488;13.428;2023-04-07T06:56:28;17.02;;;9.43;;
75419;SDS011;63998;52.488;13.428;2023-04-07T06:58:55;20.30;;;10.65;;
75419;SDS011;63998;52.488;13.428;2023-04-07T07:01:23;25.65;;;10.85;;
75419;SDS011;63998;52.488;13.428;2023-04-07T07:03:49;26.10;;;12.32;;
75419;SDS011;63998;52.488;13.428;2023-04-07T07:06:14;33.17;;;14.75;;
75419;SDS011;63998;52.488;13.428;2023-04-07T07:08:40;47.17;;;17.77;;
75419;SDS011;63998;52.488;13.428;2023-04-07T07:11:05;29.60;;;13.37;;
75419;SDS011;63998;52.488;13.428;2023-04-07T07:13:30;18.67;;;10.15;;
75419;SDS011;63998;52.488;13.428;2023-04-07T07:15:55;24.47;;;11.13;;
75419;SDS011;63998;52.488;13.428;2023-04-07T07:18:23;31.07;;;13.50;;
75419;SDS011;63998;52.488;13.428;2023-04-07T07:20:49;29.77;;;14.32;;
75419;SDS011;63998;52.488;13.428;2023-04-07T07:23:15;29.20;;;12.32;;
75419;SDS011;63998;52.488;13.428;2023-04-07T07:25:40;12.87;;;7.63;;
75419;SDS011;63998;52.488;13.428;2023-04-07T07:28:05;12.17;;;8.03;;
75419;SDS011;63998;52.488;13.428;2023-04-07T07:30:30;13.90;;;8.00;;
75419;SDS011;63998;52.488;13.428;2023-04-07T07:32:56;40.28;;;16.30;;
75419;SDS011;63998;52.488;13.428;2023-04-07T07:35:21;11.50;;;7.50;;
75419;SDS011;63998;52.488;13.428;2023-04-07T07:37:49;18.40;;;10.32;;
75419;SDS011;63998;52.488;13.428;2023-04-07T07:40:14;21.58;;;10.93;;
75419;SDS011;63998;52.488;13.428;2023-04-07T07:42:40;35.83;;;16.55;;
75419;SDS011;63998;52.488;13.428;2023-04-07T07:45:05;22.33;;;10.18;;
75419;SDS011;63998;52.488;13.428;2023-04-07T07:47:31;26.95;;;12.75;;
75419;SDS011;63998;52.488;13.428;2023-04-07T07:49:57;23.33;;;11.80;;
75419;SDS011;63998;52.488;13.428;2023-04-07T07:52:22;20.73;;;11.35;;
75419;SDS011;63998;52.488;13.428;2023-04-07T07:54:48;24.30;;;11.37;;
75419;SDS011;63998;52.488;13.428;2023-04-07T07:57:16;41.95;;;18.10;;
75419;SDS011;63998;52.488;13.428;2023-04-07T07:59:42;28.70;;;14.00;;
75419;SDS011;63998;52.488;13.428;2023-04-07T08:02:08;19.30;;;10.25;;
75419;SDS011;63998;52.488;13.428;2023-04-07T08:04:34;10.20;;;6.05;;
75419;SDS011;63998;52.488;13.428;2023-04-07T08:07:00;20.48;;;10.43;;
75419;SDS011;63998;52.488;13.428;2023-04-07T08:09:28;21.85;;;10.73;;
75419;SDS011;63998;52.488;13.428;2023-04-07T08:14:19;21.80;;;11.23;;
75419;SDS011;63998;52.488;13.428;2023-04-07T08:16:45;22.58;;;11.55;;
75419;SDS011;63998;52.488;13.428;2023-04-07T08:19:12;9.20;;;6.10;;
75419;SDS011;63998;52.488;13.428;2023-04-07T08:21:38;16.70;;;9.15;;
75419;SDS011;63998;52.488;13.428;2023-04-07T08:24:04;11.82;;;6.20;;
75419;SDS011;63998;52.488;13.428;2023-04-07T08:26:30;10.07;;;4.88;;
75419;SDS011;63998;52.488;13.428;2023-04-07T08:28:56;10.63;;;6.55;;
75419;SDS011;63998;52.488;13.428;2023-04-07T08:31:22;13.40;;;9.05;;
75419;SDS011;63998;52.488;13.428;2023-04-07T08:33:52;7.97;;;5.85;;
75419;SDS011;63998;52.488;13.428;2023-04-07T08:36:22;7.38;;;5.13;;
75419;SDS011;63998;52.488;13.428;2023-04-07T08:38:48;10.05;;;7.90;;
75419;SDS011;63998;52.488;13.428;2023-04-07T08:41:16;11.00;;;7.95;;
75419;SDS011;63998;52.488;13.428;2023-04-07T08:43:46;9.95;;;6.32;;
75419;SDS011;63998;52.488;13.428;2023-04-07T08:46:13;11.07;;;7.90;;
75419;SDS011;63998;52.488;13.428;2023-04-07T08:48:47;8.80;;;6.40;;
75419;SDS011;63998;52.488;13.428;2023-04-07T08:51:16;11.23;;;7.85;;
75419;SDS011;63998;52.488;13.428;2023-04-07T08:53:53;8.57;;;5.45;;
75419;SDS011;63998;52.488;13.428;2023-04-07T08:56:21;6.57;;;4.47;;
75419;SDS011;63998;52.488;13.428;2023-04-07T08:58:48;9.65;;;5.90;;
75419;SDS011;63998;52.488;13.428;2023-04-07T09:01:13;7.38;;;4.13;;
75419;SDS011;63998;52.488;13.428;2023-04-07T09:03:41;8.23;;;4.88;;
75419;SDS011;63998;52.488;13.428;2023-04-07T09:06:08;6.82;;;4.82;;
75419;SDS011;63998;52.488;13.428;2023-04-07T09:08:35;9.18;;;5.07;;
75419;SDS011;63998;52.488;13.428;2023-04-07T09:11:01;7.50;;;4.80;;
75419;SDS011;63998;52.488;13.428;2023-04-07T09:13:26;7.15;;;4.72;;
75419;SDS011;63998;52.488;13.428;2023-04-07T09:15:52;7.05;;;4.43;;
75419;SDS011;63998;52.488;13.428;2023-04-07T09:18:20;5.90;;;4.10;;
75419;SDS011;63998;52.488;13.428;2023-04-07T09:20:54;5.57;;;4.35;;
75419;SDS011;63998;52.488;13.428;2023-04-07T09:23:27;4.15;;;3.17;;
75419;SDS011;63998;52.488;13.428;2023-04-07T09:26:00;6.60;;;3.80;;
75419;SDS011;63998;52.488;13.428;2023-04-07T09:31:47;5.70;;;3.63;;
75419;SDS011;63998;52.488;13.428;2023-04-07T09:34:29;7.07;;;3.63;;
75419;SDS011;63998;52.488;13.428;2023-04-07T09:36:57;6.03;;;4.07;;
75419;SDS011;63998;52.488;13.428;2023-04-07T09:39:23;7.80;;;4.53;;
75419;SDS011;63998;52.488;13.428;2023-04-07T09:41:49;11.05;;;4.03;;
75419;SDS011;63998;52.488;13.428;2023-04-07T09:44:20;8.10;;;4.70;;
75419;SDS011;63998;52.488;13.428;2023-04-07T09:46:47;12.20;;;4.72;;
75419;SDS011;63998;52.488;13.428;2023-04-07T09:49:20;6.47;;;4.15;;
75419;SDS011;63998;52.488;13.428;2023-04-07T09:54:33;9.27;;;6.20;;
75419;SDS011;63998;52.488;13.428;2023-04-07T09:57:03;7.28;;;4.38;;
75419;SDS011;63998;52.488;13.428;2023-04-07T09:59:32;8.68;;;5.13;;
75419;SDS011;63998;52.488;13.428;2023-04-07T10:01:59;6.53;;;3.72;;
75419;SDS011;63998;52.488;13.428;2023-04-07T10:04:25;5.93;;;3.58;;
75419;SDS011;63998;52.488;13.428;2023-04-07T10:06:53;6.05;;;3.65;;
75419;SDS011;63998;52.488;13.428;2023-04-07T10:09:23;4.85;;;3.45;;
75419;SDS011;63998;52.488;13.428;2023-04-07T10:11:52;4.65;;;3.38;;
75419;SDS011;63998;52.488;13.428;2023-04-07T10:14:23;6.72;;;3.60;;
75419;SDS011;63998;52.488;13.428;2023-04-07T10:16:54;4.95;;;3.40;;
75419;SDS011;63998;52.488;13.428;2023-04-07T10:19:19;5.43;;;3.38;;
75419;SDS011;63998;52.488;13.428;2023-04-07T10:21:45;6.60;;;3.85;;
75419;SDS011;63998;52.488;13.428;2023-04-07T10:27:13;8.30;;;3.60;;
75419;SDS011;63998;52.488;13.428;2023-04-07T10:29:45;5.57;;;2.88;;
75419;SDS011;63998;52.488;13.428;2023-04-07T10:32:13;7.03;;;3.10;;
75419;SDS011;63998;52.488;13.428;2023-04-07T10:39:41;5.65;;;3.20;;
75419;SDS011;63998;52.488;13.428;2023-04-07T10:42:39;5.00;;;3.33;;
75419;SDS011;63998;52.488;13.428;2023-04-07T10:45:01;4.85;;;3.25;;
75419;SDS011;63998;52.488;13.428;2023-04-07T10:47:28;5.07;;;3.30;;
75419;SDS011;63998;52.488;13.428;2023-04-07T10:52:39;5.05;;;3.53;;
75419;SDS011;63998;52.488;13.428;2023-04-07T11:03:51;4.15;;;3.05;;
75419;SDS011;63998;52.488;13.428;2023-04-07T11:06:18;4.90;;;2.95;;
75419;SDS011;63998;52.488;13.428;2023-04-07T11:11:20;7.28;;;3.03;;
75419;SDS011;63998;52.488;13.428;2023-04-07T11:14:01;6.10;;;3.40;;
75419;SDS011;63998;52.488;13.428;2023-04-07T11:16:35;5.85;;;3.63;;
75419;SDS011;63998;52.488;13.428;2023-04-07T11:19:07;8.05;;;3.90;;
75419;SDS011;63998;52.488;13.428;2023-04-07T11:21:33;7.30;;;3.70;;
75419;SDS011;63998;52.488;13.428;2023-04-07T11:24:01;6.65;;;4.13;;
75419;SDS011;63998;52.488;13.428;2023-04-07T11:26:26;8.10;;;4.93;;
75419;SDS011;63998;52.488;13.428;2023-04-07T11:28:56;7.13;;;4.38;;
75419;SDS011;63998;52.488;13.428;2023-04-07T11:31:27;7.53;;;4.70;;
75419;SDS011;63998;52.488;13.428;2023-04-07T11:33:58;7.82;;;5.18;;
75419;SDS011;63998;52.488;13.428;2023-04-07T11:36:38;9.77;;;6.00;;
75419;SDS011;63998;52.488;13.428;2023-04-07T11:39:04;11.07;;;6.70;;
75419;SDS011;63998;52.488;13.428;2023-04-07T11:41:30;10.80;;;7.13;;
75419;SDS011;63998;52.488;13.428;2023-04-07T11:44:03;15.13;;;8.85;;
75419;SDS011;63998;52.488;13.428;2023-04-07T11:46:32;12.68;;;8.30;;
75419;SDS011;63998;52.488;13.428;2023-04-07T11:49:13;13.00;;;8.63;;
75419;SDS011;63998;52.488;13.428;2023-04-07T11:51:41;13.52;;;7.30;;
75419;SDS011;63998;52.488;13.428;2023-04-07T11:54:08;9.80;;;6.78;;
75419;SDS011;63998;52.488;13.428;2023-04-07T11:56:40;10.95;;;7.60;;
75419;SDS011;63998;52.488;13.428;2023-04-07T11:59:15;11.77;;;7.57;;
75419;SDS011;63998;52.488;13.428;2023-04-07T12:01:44;12.30;;;7.28;;
75419;SDS011;63998;52.488;13.428;2023-04-07T12:04:11;11.02;;;6.90;;
75419;SDS011;63998;52.488;13.428;2023-04-07T12:06:38;11.70;;;6.70;;
75419;SDS011;63998;52.488;13.428;2023-04-07T12:09:05;10.45;;;7.10;;
75419;SDS011;63998;52.488;13.428;2023-04-07T12:11:32;10.13;;;6.72;;
75419;SDS011;63998;52.488;13.428;2023-04-07T12:13:57;10.75;;;6.45;;
75419;SDS011;63998;52.488;13.428;2023-04-07T12:16:23;8.00;;;5.85;;
75419;SDS011;63998;52.488;13.428;2023-04-07T12:18:49;10.13;;;5.75;;
75419;SDS011;63998;52.488;13.428;2023-04-07T12:21:18;7.75;;;5.22;;
75419;SDS011;63998;52.488;13.428;2023-04-07T12:23:44;9.38;;;5.22;;
75419;SDS011;63998;52.488;13.428;2023-04-07T12:26:11;7.13;;;4.53;;
75419;SDS011;63998;52.488;13.428;2023-04-07T12:28:37;8.93;;;5.20;;
75419;SDS011;63998;52.488;13.428;2023-04-07T12:31:02;9.57;;;5.35;;
75419;SDS011;63998;52.488;13.428;2023-04-07T12:33:32;8.70;;;6.07;;
75419;SDS011;63998;52.488;13.428;2023-04-07T12:35:57;11.05;;;6.35;;
75419;SDS011;63998;52.488;13.428;2023-04-07T12:38:23;14.00;;;7.57;;
75419;SDS011;63998;52.488;13.428;2023-04-07T12:40:48;12.00;;;6.57;;
75419;SDS011;63998;52.488;13.428;2023-04-07T12:43:16;10.48;;;6.47;;
75419;SDS011;63998;52.488;13.428;2023-04-07T12:45:42;14.77;;;7.50;;
75419;SDS011;63998;52.488;13.428;2023-04-07T12:48:07;11.60;;;6.37;;
75419;SDS011;63998;52.488;13.428;2023-04-07T12:50:34;12.52;;;6.72;;
75419;SDS011;63998;52.488;13.428;2023-04-07T12:53:03;11.25;;;6.25;;
75419;SDS011;63998;52.488;13.428;2023-04-07T12:55:31;14.98;;;8.48;;
75419;SDS011;63998;52.488;13.428;2023-04-07T12:57:57;14.40;;;7.90;;
75419;SDS011;63998;52.488;13.428;2023-04-07T13:00:23;12.52;;;6.80;;
75419;SDS011;63998;52.488;13.428;2023-04-07T13:02:49;9.65;;;5.28;;
75419;SDS011;63998;52.488;13.428;2023-04-07T13:05:14;11.95;;;5.85;;
75419;SDS011;63998;52.488;13.428;2023-04-07T13:07:42;12.55;;;7.10;;
75419;SDS011;63998;52.488;13.428;2023-04-07T13:10:10;13.32;;;7.15;;
75419;SDS011;63998;52.488;13.428;2023-04-07T13:12:36;13.07;;;6.83;;
75419;SDS011;63998;52.488;13.428;2023-04-07T13:15:01;13.40;;;7.55;;
75419;SDS011;63998;52.488;13.428;2023-04-07T13:17:33;10.85;;;5.70;;
75419;SDS011;63998;52.488;13.428;2023-04-07T13:20:01;15.82;;;8.75;;
75419;SDS011;63998;52.488;13.428;2023-04-07T13:22:27;14.63;;;7.18;;
75419;SDS011;63998;52.488;13.428;2023-04-07T13:24:57;10.77;;;5.80;;
75419;SDS011;63998;52.488;13.428;2023-04-07T13:27:28;7.70;;;4.53;;
75419;SDS011;63998;52.488;13.428;2023-04-07T13:29:55;12.65;;;6.25;;
75419;SDS011;63998;52.488;13.428;2023-04-07T13:32:21;9.83;;;5.33;;
75419;SDS011;63998;52.488;13.428;2023-04-07T13:34:48;16.05;;;9.05;;
75419;SDS011;63998;52.488;13.428;2023-04-07T13:37:14;6.05;;;4.35;;
75419;SDS011;63998;52.488;13.428;2023-04-07T13:39:40;11.18;;;6.00;;
75419;SDS011;63998;52.488;13.428;2023-04-07T13:42:05;7.47;;;3.97;;
75419;SDS011;63998;52.488;13.428;2023-04-07T13:44:33;11.63;;;6.05;;
75419;SDS011;63998;52.488;13.428;2023-04-07T13:47:01;15.40;;;7.47;;
75419;SDS011;63998;52.488;13.428;2023-04-07T13:49:27;5.20;;;3.25;;
75419;SDS011;63998;52.488;13.428;2023-04-07T13:51:55;6.45;;;3.83;;
75419;SDS011;63998;52.488;13.428;2023-04-07T13:54:20;10.47;;;4.97;;
75419;SDS011;63998;52.488;13.428;2023-04-07T13:56:46;10.48;;;6.07;;
75419;SDS011;63998;52.488;13.428;2023-04-07T14:01:40;14.07;;;7.73;;
75419;SDS011;63998;52.488;13.428;2023-04-07T14:04:05;7.07;;;4.20;;
75419;SDS011;63998;52.488;13.428;2023-04-07T14:06:31;6.57;;;3.60;;
75419;SDS011;63998;52.488;13.428;2023-04-07T14:08:57;19.15;;;9.25;;
75419;SDS011;63998;52.488;13.428;2023-04-07T14:11:22;23.52;;;11.00;;
75419;SDS011;63998;52.488;13.428;2023-04-07T14:13:48;32.63;;;12.68;;
75419;SDS011;63998;52.488;13.428;2023-04-07T14:16:14;20.25;;;9.13;;
75419;SDS011;63998;52.488;13.428;2023-04-07T14:18:40;14.70;;;8.07;;
75419;SDS011;63998;52.488;13.428;2023-04-07T14:21:06;12.32;;;6.28;;
75419;SDS011;63998;52.488;13.428;2023-04-07T14:23:31;12.95;;;7.72;;
75419;SDS011;63998;52.488;13.428;2023-04-07T14:25:57;8.25;;;5.32;;
75419;SDS011;63998;52.488;13.428;2023-04-07T14:28:26;13.95;;;7.95;;
75419;SDS011;63998;52.488;13.428;2023-04-07T14:30:54;17.20;;;8.65;;
75419;SDS011;63998;52.488;13.428;2023-04-07T14:33:22;13.20;;;7.45;;
75419;SDS011;63998;52.488;13.428;2023-04-07T14:35:47;18.97;;;9.00;;
75419;SDS011;63998;52.488;13.428;2023-04-07T14:38:15;7.88;;;4.90;;
75419;SDS011;63998;52.488;13.428;2023-04-07T14:40:40;13.13;;;7.82;;
75419;SDS011;63998;52.488;13.428;2023-04-07T14:43:06;12.67;;;7.33;;
75419;SDS011;63998;52.488;13.428;2023-04-07T14:45:34;7.15;;;4.20;;
75419;SDS011;63998;52.488;13.428;2023-04-07T14:48:00;15.40;;;9.18;;
75419;SDS011;63998;52.488;13.428;2023-04-07T14:50:25;11.55;;;6.32;;
75419;SDS011;63998;52.488;13.428;2023-04-07T14:52:51;17.88;;;9.18;;
75419;SDS011;63998;52.488;13.428;2023-04-07T14:55:17;14.38;;;8.32;;
75419;SDS011;63998;52.488;13.428;2023-04-07T14:57:42;10.45;;;4.82;;
75419;SDS011;63998;52.488;13.428;2023-04-07T15:00:10;7.20;;;3.92;;
75419;SDS011;63998;52.488;13.428;2023-04-07T15:02:36;8.85;;;5.18;;
75419;SDS011;63998;52.488;13.428;2023-04-07T15:05:04;7.55;;;3.53;;
75419;SDS011;63998;52.488;13.428;2023-04-07T15:07:29;10.65;;;5.25;;
75419;SDS011;63998;52.488;13.428;2023-04-07T15:09:55;12.13;;;5.83;;